createdAt,value
2022-08-21T00:01:52.275Z,95.60
2022-08-21T00:04:22.150Z,95.50
2022-08-21T00:06:50.277Z,95.60
2022-08-21T00:09:18.315Z,95.50
2022-08-21T00:11:45.229Z,95.50
2022-08-21T00:14:14.017Z,95.70
2022-08-21T00:16:41.553Z,95.70
2022-08-21T00:19:09.383Z,95.80
2022-08-21T00:21:36.661Z,95.70
2022-08-21T00:24:03.914Z,95.50
2022-08-21T00:26:30.797Z,95.30
2022-08-21T00:28:57.509Z,95.20
2022-08-21T00:31:26.047Z,95.50
2022-08-21T00:33:52.896Z,95.20
2022-08-21T00:36:27.315Z,95.30
2022-08-21T00:38:54.086Z,95.30
2022-08-21T00:41:38.275Z,95.50
2022-08-21T00:44:08.850Z,95.60
2022-08-21T00:46:36.699Z,95.70
2022-08-21T00:49:04.890Z,95.80
2022-08-21T00:51:58.994Z,95.90
2022-08-21T00:54:29.983Z,96.10
2022-08-21T00:57:10.062Z,96.10
2022-08-21T00:59:39.236Z,96.30
2022-08-21T01:02:08.271Z,96.30
2022-08-21T01:04:35.587Z,96.40
2022-08-21T01:07:03.415Z,96.40
2022-08-21T01:09:30.173Z,96.40
2022-08-21T01:11:57.000Z,96.50
2022-08-21T01:14:23.891Z,96.50
2022-08-21T01:16:53.666Z,96.60
2022-08-21T01:19:21.758Z,96.60
2022-08-21T01:21:49.017Z,96.60
2022-08-21T01:24:16.078Z,96.50
2022-08-21T01:26:43.952Z,96.50
2022-08-21T01:29:29.575Z,96.60
2022-08-21T01:31:56.358Z,96.60
2022-08-21T01:34:23.380Z,96.60
2022-08-21T01:36:50.381Z,96.60
2022-08-21T01:39:17.413Z,96.60
2022-08-21T01:41:44.520Z,96.70
2022-08-21T01:44:11.578Z,96.80
2022-08-21T01:46:38.430Z,96.70
2022-08-21T01:49:06.472Z,96.70
2022-08-21T01:51:33.565Z,96.80
2022-08-21T01:54:00.940Z,96.70
2022-08-21T01:56:28.955Z,96.70
2022-08-21T01:58:56.108Z,96.70
2022-08-21T02:01:22.909Z,96.70
2022-08-21T02:03:49.807Z,96.60
2022-08-21T02:06:18.784Z,96.70
2022-08-21T02:08:47.202Z,96.80
2022-08-21T02:11:14.347Z,96.70
2022-08-21T02:13:41.503Z,96.70
2022-08-21T02:16:08.841Z,96.70
2022-08-21T02:18:36.419Z,96.70
2022-08-21T02:21:04.848Z,96.70
2022-08-21T02:23:32.190Z,96.80
2022-08-21T02:26:00.243Z,96.70
2022-08-21T02:28:27.621Z,96.80
2022-08-21T02:30:55.221Z,96.90
2022-08-21T02:33:23.472Z,96.90
2022-08-21T02:35:50.822Z,96.90
2022-08-21T02:38:23.680Z,96.90
2022-08-21T02:40:52.034Z,96.90
2022-08-21T02:43:21.355Z,96.90
2022-08-21T02:45:49.219Z,97.00
2022-08-21T02:48:19.800Z,97.00
2022-08-21T02:50:52.309Z,97.00
2022-08-21T02:53:20.784Z,97.10
2022-08-21T02:55:50.415Z,97.00
2022-08-21T02:58:22.025Z,97.00
2022-08-21T03:00:48.730Z,97.10
2022-08-21T03:03:15.666Z,97.10
2022-08-21T03:05:43.585Z,97.50
2022-08-21T03:08:13.169Z,97.20
2022-08-21T03:10:42.553Z,97.30
2022-08-21T03:13:09.755Z,97.30
2022-08-21T03:15:36.953Z,97.30
2022-08-21T03:18:06.010Z,97.20
2022-08-21T03:20:34.158Z,97.30
2022-08-21T03:23:02.460Z,97.30
2022-08-21T03:25:40.506Z,97.30
2022-08-21T03:28:13.360Z,97.40
2022-08-21T03:30:45.159Z,97.40
2022-08-21T03:33:15.573Z,97.50
2022-08-21T03:35:45.134Z,97.50
2022-08-21T03:38:13.776Z,97.60
2022-08-21T03:40:41.158Z,97.50
2022-08-21T03:43:09.993Z,97.50
2022-08-21T03:45:37.014Z,97.50
2022-08-21T03:48:05.823Z,97.40
2022-08-21T03:50:35.115Z,97.50
2022-08-21T03:53:16.618Z,97.40
2022-08-21T03:55:47.781Z,97.50
2022-08-21T03:58:17.726Z,97.60
2022-08-21T04:00:50.438Z,97.60
2022-08-21T04:03:17.931Z,97.60
2022-08-21T04:05:46.483Z,97.60
2022-08-21T04:08:14.785Z,97.60
2022-08-21T04:10:44.130Z,97.70
2022-08-21T04:13:10.907Z,97.70
2022-08-21T04:15:37.841Z,97.70
2022-08-21T04:18:05.485Z,97.70
2022-08-21T04:20:32.246Z,97.70
2022-08-21T04:22:59.174Z,97.80
2022-08-21T04:25:28.828Z,97.90
2022-08-21T04:27:56.039Z,97.90
2022-08-21T04:30:28.447Z,97.90
2022-08-21T04:32:56.945Z,98.10
2022-08-21T04:35:24.998Z,98.30
2022-08-21T04:37:52.026Z,98.40
2022-08-21T04:40:20.860Z,98.30
2022-08-21T04:42:50.627Z,98.30
2022-08-21T04:45:22.149Z,98.40
2022-08-21T04:47:57.419Z,98.40
2022-08-21T04:50:48.750Z,98.40
2022-08-21T04:53:21.083Z,98.40
2022-08-21T04:55:48.848Z,98.50
2022-08-21T04:58:20.013Z,98.30
2022-08-21T05:00:47.941Z,98.30
2022-08-21T05:03:17.440Z,98.40
2022-08-21T05:05:44.469Z,98.30
2022-08-21T05:08:15.378Z,98.40
2022-08-21T05:10:43.339Z,98.30
2022-08-21T05:13:10.843Z,98.30
2022-08-21T05:15:38.327Z,98.30
2022-08-21T05:18:05.413Z,98.30
2022-08-21T05:20:32.290Z,98.30
2022-08-21T05:22:59.121Z,98.30
2022-08-21T05:25:26.098Z,98.30
2022-08-21T05:27:55.085Z,98.40
2022-08-21T05:30:24.860Z,98.60
2022-08-21T05:33:00.937Z,98.50
2022-08-21T05:35:29.831Z,98.60
2022-08-21T05:37:57.649Z,98.30
2022-08-21T05:40:24.861Z,98.60
2022-08-21T05:42:54.486Z,98.40
2022-08-21T05:45:41.578Z,98.60
2022-08-21T05:48:10.257Z,98.30
2022-08-21T05:50:38.785Z,98.40
2022-08-21T05:53:07.516Z,98.50
2022-08-21T05:55:34.733Z,98.40
2022-08-21T05:58:01.605Z,98.30
2022-08-21T06:00:28.468Z,98.30
2022-08-21T06:02:55.312Z,98.30
2022-08-21T06:05:33.451Z,98.30
2022-08-21T06:08:04.692Z,98.20
2022-08-21T06:10:31.426Z,97.90
2022-08-21T06:12:58.277Z,97.90
2022-08-21T06:15:25.164Z,97.70
2022-08-21T06:17:53.032Z,97.70
2022-08-21T06:20:20.335Z,97.60
2022-08-21T06:22:47.034Z,97.40
2022-08-21T06:25:13.769Z,97.10
2022-08-21T06:27:40.603Z,97.10
2022-08-21T06:30:08.397Z,96.90
2022-08-21T06:32:35.938Z,97.00
2022-08-21T06:35:02.742Z,96.90
2022-08-21T06:37:30.115Z,96.80
2022-08-21T06:39:56.978Z,96.50
2022-08-21T06:42:28.074Z,96.50
2022-08-21T06:44:54.963Z,96.50
2022-08-21T06:47:21.701Z,96.50
2022-08-21T06:49:48.386Z,96.10
2022-08-21T06:52:16.311Z,95.80
2022-08-21T06:54:43.244Z,95.90
2022-08-21T06:57:10.297Z,96.10
2022-08-21T06:59:37.102Z,96.00
2022-08-21T07:02:04.539Z,96.00
2022-08-21T07:04:31.559Z,95.80
2022-08-21T07:06:58.308Z,95.40
2022-08-21T07:09:25.166Z,95.00
2022-08-21T07:11:54.988Z,94.70
2022-08-21T07:14:22.331Z,94.40
2022-08-21T07:16:51.666Z,94.40
2022-08-21T07:19:18.807Z,94.30
2022-08-21T07:21:46.019Z,94.40
2022-08-21T07:24:12.959Z,94.00
2022-08-21T07:26:39.805Z,94.00
2022-08-21T07:29:06.589Z,93.80
2022-08-21T07:31:33.399Z,93.70
2022-08-21T07:34:00.195Z,93.60
2022-08-21T07:36:27.044Z,93.20
2022-08-21T07:38:54.068Z,92.90
2022-08-21T07:41:27.423Z,92.40
2022-08-21T07:43:54.162Z,92.60
2022-08-21T07:46:21.519Z,92.50
2022-08-21T07:48:48.325Z,92.30
2022-08-21T07:51:17.534Z,92.20
2022-08-21T07:53:50.464Z,92.20
2022-08-21T07:56:17.697Z,92.00
2022-08-21T07:58:47.244Z,92.00
2022-08-21T08:01:14.657Z,91.90
2022-08-21T08:03:41.948Z,92.00
2022-08-21T08:06:13.104Z,92.10
2022-08-21T08:08:41.590Z,91.80
2022-08-21T08:11:11.717Z,91.80
2022-08-21T08:13:44.736Z,91.40
2022-08-21T08:16:11.626Z,90.80
2022-08-21T08:18:38.619Z,90.70
2022-08-21T08:21:06.375Z,90.40
2022-08-21T08:23:33.958Z,90.00
2022-08-21T08:26:03.413Z,89.10
2022-08-21T08:28:32.666Z,88.70
2022-08-21T08:31:01.117Z,88.00
2022-08-21T08:33:28.508Z,88.10
2022-08-21T08:35:55.371Z,87.60
2022-08-21T08:38:24.723Z,87.20
2022-08-21T08:40:57.262Z,87.00
2022-08-21T08:43:24.198Z,87.00
2022-08-21T08:45:53.044Z,87.00
2022-08-21T08:48:53.098Z,86.60
2022-08-21T08:52:00.580Z,86.30
2022-08-21T08:54:56.496Z,85.50
2022-08-21T08:57:25.486Z,85.90
2022-08-21T08:59:56.457Z,85.40
2022-08-21T09:02:28.666Z,84.80
2022-08-21T09:04:56.509Z,84.90
2022-08-21T09:07:40.538Z,84.50
2022-08-21T09:10:08.448Z,84.50
2022-08-21T09:12:55.802Z,84.20
2022-08-21T09:15:57.112Z,83.50
2022-08-21T09:18:54.594Z,82.60
2022-08-21T09:21:49.070Z,80.90
2022-08-21T09:25:03.818Z,81.00
2022-08-21T09:27:32.534Z,81.10
2022-08-21T09:29:59.603Z,80.70
2022-08-21T09:32:36.683Z,81.20
2022-08-21T09:35:15.085Z,81.90
2022-08-21T09:37:50.399Z,80.80
2022-08-21T09:40:38.802Z,81.10
2022-08-21T09:43:19.775Z,81.10
2022-08-21T09:45:48.412Z,80.90
2022-08-21T09:48:27.068Z,81.70
2022-08-21T09:51:17.568Z,81.10
2022-08-21T09:53:48.823Z,77.00
2022-08-21T09:56:45.792Z,78.10
2022-08-21T09:59:36.512Z,77.10
2022-08-21T10:02:20.844Z,75.90
2022-08-21T10:05:03.571Z,75.70
2022-08-21T10:07:32.952Z,75.10
2022-08-21T10:10:15.675Z,74.60
2022-08-21T10:13:09.568Z,74.20
2022-08-21T10:16:01.223Z,73.70
2022-08-21T10:18:40.081Z,72.70
2022-08-21T10:21:13.479Z,72.20
2022-08-21T10:23:55.454Z,71.20
2022-08-21T10:26:27.997Z,70.10
2022-08-21T10:29:06.641Z,71.00
2022-08-21T10:32:17.311Z,71.50
2022-08-21T10:35:15.082Z,69.30
2022-08-21T10:38:46.330Z,67.70
2022-08-21T10:41:07.994Z,68.50
2022-08-21T10:43:55.424Z,67.70
2022-08-21T10:46:50.957Z,68.10
2022-08-21T10:49:22.033Z,68.30
2022-08-21T10:52:19.956Z,66.80
2022-08-21T10:55:13.677Z,65.30
2022-08-21T10:57:51.839Z,65.00
2022-08-21T11:00:23.337Z,65.90
2022-08-21T11:03:05.296Z,64.30
2022-08-21T11:05:55.612Z,62.70
2022-08-21T11:08:39.086Z,63.20
2022-08-21T11:11:13.775Z,62.30
2022-08-21T11:13:55.068Z,61.20
2022-08-21T11:16:50.004Z,59.40
2022-08-21T11:19:34.273Z,59.30
2022-08-21T11:22:24.725Z,58.90
2022-08-21T11:25:09.415Z,58.70
2022-08-21T11:27:43.133Z,59.10
2022-08-21T11:30:10.942Z,58.40
2022-08-21T11:32:58.713Z,58.30
2022-08-21T11:36:05.124Z,57.80
2022-08-21T11:38:41.175Z,57.90
2022-08-21T11:41:31.246Z,57.50
2022-08-21T11:44:05.319Z,56.80
2022-08-21T11:46:41.235Z,55.90
2022-08-21T11:49:29.099Z,57.90
2022-08-21T11:52:14.597Z,56.60
2022-08-21T11:55:01.654Z,56.60
2022-08-21T11:57:42.808Z,57.10
2022-08-21T12:00:30.309Z,55.90
2022-08-21T12:03:07.293Z,55.50
2022-08-21T12:05:38.854Z,55.80
2022-08-21T12:08:16.555Z,55.00
2022-08-21T12:11:01.327Z,54.30
2022-08-21T12:13:36.751Z,54.60
2022-08-21T12:16:08.565Z,54.30
2022-08-21T12:18:35.832Z,54.20
2022-08-21T12:21:22.501Z,53.90
2022-08-21T12:24:05.191Z,52.60
2022-08-21T12:26:58.364Z,52.60
2022-08-21T12:29:36.933Z,52.70
2022-08-21T12:32:31.281Z,52.00
2022-08-21T12:35:25.078Z,51.40
2022-08-21T12:38:07.443Z,50.90
2022-08-21T12:40:44.548Z,50.80
2022-08-21T12:43:26.158Z,50.60
2022-08-21T12:45:53.407Z,49.80
2022-08-21T12:48:20.128Z,49.70
2022-08-21T12:51:07.493Z,49.40
2022-08-21T12:53:49.413Z,49.20
2022-08-21T12:56:21.943Z,49.20
2022-08-21T12:58:52.370Z,48.50
2022-08-21T13:01:29.899Z,48.30
2022-08-21T13:04:04.774Z,48.00
2022-08-21T13:06:39.092Z,47.10
2022-08-21T13:09:10.824Z,47.60
2022-08-21T13:11:40.384Z,47.50
2022-08-21T13:14:31.349Z,47.50
2022-08-21T13:16:59.877Z,46.80
2022-08-21T13:19:27.455Z,47.00
2022-08-21T13:21:54.473Z,46.80
2022-08-21T13:24:43.581Z,46.30
2022-08-21T13:27:40.292Z,47.30
2022-08-21T13:30:14.622Z,47.10
2022-08-21T13:32:44.861Z,47.20
2022-08-21T13:35:21.987Z,46.80
2022-08-21T13:37:52.000Z,45.90
2022-08-21T13:40:33.666Z,45.40
2022-08-21T13:43:01.721Z,45.20
2022-08-21T13:45:33.653Z,45.70
2022-08-21T13:48:06.644Z,45.20
2022-08-21T13:50:43.495Z,44.50
2022-08-21T13:53:41.435Z,44.70
2022-08-21T13:56:08.293Z,44.30
2022-08-21T13:58:45.238Z,44.70
2022-08-21T14:01:24.093Z,44.30
2022-08-21T14:03:53.974Z,44.30
2022-08-21T14:06:24.223Z,43.90
2022-08-21T14:08:58.903Z,43.20
2022-08-21T14:11:26.930Z,42.80
2022-08-21T14:14:04.794Z,43.50
2022-08-21T14:16:47.269Z,43.40
2022-08-21T14:19:24.612Z,42.90
2022-08-21T14:21:51.484Z,42.40
2022-08-21T14:24:31.078Z,42.60
2022-08-21T14:27:06.029Z,42.40
2022-08-21T14:29:42.062Z,42.90
2022-08-21T14:32:21.759Z,42.40
2022-08-21T14:34:51.595Z,42.20
2022-08-21T14:37:18.930Z,42.00
2022-08-21T14:39:46.634Z,42.30
2022-08-21T14:42:13.954Z,42.70
2022-08-21T14:44:40.646Z,42.20
2022-08-21T14:47:08.811Z,42.30
2022-08-21T14:49:35.477Z,42.50
2022-08-21T14:52:02.199Z,42.80
2022-08-21T14:54:31.394Z,42.60
2022-08-21T14:57:06.597Z,42.70
2022-08-21T14:59:34.130Z,42.70
2022-08-21T15:02:01.666Z,43.20
2022-08-21T15:04:28.426Z,42.50
2022-08-21T15:06:55.112Z,42.10
2022-08-21T15:09:22.022Z,42.20
2022-08-21T15:11:48.830Z,42.10
2022-08-21T15:14:23.295Z,42.30
2022-08-21T15:16:51.104Z,42.30
2022-08-21T15:19:17.923Z,42.50
2022-08-21T15:21:44.608Z,42.50
2022-08-21T15:24:11.282Z,42.60
2022-08-21T15:26:37.884Z,42.20
2022-08-21T15:29:06.803Z,41.80
2022-08-21T15:31:33.789Z,41.50
2022-08-21T15:34:00.526Z,41.80
2022-08-21T15:36:27.190Z,41.90
2022-08-21T15:38:53.829Z,42.10
2022-08-21T15:41:20.530Z,41.60
2022-08-21T15:43:49.423Z,42.00
2022-08-21T15:46:17.309Z,41.70
2022-08-21T15:48:44.216Z,41.60
2022-08-21T15:51:11.837Z,42.20
2022-08-21T15:53:40.887Z,42.30
2022-08-21T15:56:12.554Z,42.00
2022-08-21T15:58:39.550Z,42.20
2022-08-21T16:01:06.294Z,42.10
2022-08-21T16:03:33.854Z,42.50
2022-08-21T16:06:00.528Z,42.70
2022-08-21T16:08:27.528Z,42.40
2022-08-21T16:10:55.437Z,41.90
2022-08-21T16:13:25.793Z,42.60
2022-08-21T16:15:52.905Z,42.90
2022-08-21T16:18:20.770Z,43.10
2022-08-21T16:20:47.496Z,43.00
2022-08-21T16:23:14.266Z,42.40
2022-08-21T16:25:41.348Z,42.80
2022-08-21T16:28:10.388Z,42.20
2022-08-21T16:30:39.799Z,45.90
2022-08-21T16:33:06.767Z,46.40
2022-08-21T16:35:33.550Z,46.40
2022-08-21T16:38:00.499Z,47.10
2022-08-21T16:40:28.529Z,48.00
2022-08-21T16:42:56.281Z,44.90
2022-08-21T16:45:22.995Z,46.10
2022-08-21T16:47:49.825Z,49.10
2022-08-21T16:50:19.408Z,49.60
2022-08-21T16:52:46.054Z,49.80
2022-08-21T16:55:12.784Z,49.70
2022-08-21T16:57:39.577Z,49.20
2022-08-21T17:00:11.919Z,50.50
2022-08-21T17:02:40.350Z,50.60
2022-08-21T17:05:12.933Z,47.60
2022-08-21T17:07:41.540Z,48.30
2022-08-21T17:10:08.945Z,50.00
2022-08-21T17:12:36.022Z,47.20
2022-08-21T17:15:06.093Z,48.40
2022-08-21T17:17:35.720Z,49.10
2022-08-21T17:20:03.057Z,49.70
2022-08-21T17:22:29.758Z,49.50
2022-08-21T17:24:56.386Z,50.80
2022-08-21T17:27:26.807Z,50.10
2022-08-21T17:29:55.045Z,50.70
2022-08-21T17:32:21.784Z,50.20
2022-08-21T17:34:48.511Z,51.50
2022-08-21T17:37:15.290Z,51.10
2022-08-21T17:39:42.074Z,49.90
2022-08-21T17:42:10.705Z,51.10
2022-08-21T17:44:38.838Z,51.00
2022-08-21T17:47:06.689Z,51.50
2022-08-21T17:49:33.636Z,51.40
2022-08-21T17:52:00.490Z,51.40
2022-08-21T17:54:27.599Z,51.30
2022-08-21T17:56:55.432Z,51.40
2022-08-21T17:59:23.123Z,51.10
2022-08-21T18:01:50.090Z,51.40
2022-08-21T18:04:16.795Z,51.70
2022-08-21T19:49:56.631Z,60.00
2022-08-21T19:52:23.399Z,59.50
2022-08-21T19:54:51.416Z,60.20
2022-08-21T19:57:18.558Z,61.00
2022-08-21T19:59:45.819Z,61.10
2022-08-21T20:02:13.968Z,61.20
2022-08-21T20:07:27.476Z,61.50
2022-08-21T20:09:54.636Z,61.30
2022-08-21T20:12:22.339Z,61.70
2022-08-21T20:14:50.011Z,61.60
2022-08-21T20:17:17.559Z,62.00
2022-08-21T20:19:44.984Z,62.00
2022-08-21T20:22:12.249Z,61.80
2022-08-21T20:24:39.532Z,61.30
2022-08-21T20:27:08.572Z,61.80
2022-08-21T20:32:22.891Z,62.60
2022-08-21T20:34:52.155Z,62.00
2022-08-21T20:37:35.841Z,61.20
2022-08-21T20:40:07.784Z,62.50
2022-08-21T20:42:34.525Z,62.20
2022-08-21T20:45:04.417Z,62.10
2022-08-21T20:47:36.273Z,63.70
2022-08-21T20:50:08.221Z,62.90
2022-08-21T20:52:39.348Z,63.60
2022-08-21T20:55:15.151Z,63.80
2022-08-21T20:57:51.062Z,64.30
2022-08-21T21:00:19.628Z,63.30
2022-08-21T21:03:04.960Z,64.10
2022-08-21T21:05:47.622Z,63.40
2022-08-21T21:08:18.667Z,63.70
2022-08-21T21:10:51.854Z,64.00
2022-08-21T21:13:34.092Z,64.10
2022-08-21T21:16:15.229Z,64.30
2022-08-21T21:18:46.620Z,64.00
2022-08-21T21:21:17.169Z,64.80
2022-08-21T21:23:43.907Z,64.80
2022-08-21T21:26:48.922Z,64.90
2022-08-21T21:29:29.848Z,65.00
2022-08-21T21:31:56.882Z,65.60
2022-08-21T21:34:24.209Z,66.00
2022-08-21T21:36:56.519Z,66.30
2022-08-21T21:39:26.285Z,66.50
2022-08-21T21:42:05.598Z,66.80
2022-08-21T21:44:38.156Z,67.70
2022-08-21T21:47:09.448Z,67.90
2022-08-21T21:49:42.690Z,68.20
2022-08-21T21:52:38.650Z,68.20
2022-08-21T21:55:05.375Z,68.60
2022-08-21T21:57:49.534Z,69.00
2022-08-21T22:00:21.933Z,68.90
2022-08-21T22:02:58.717Z,68.70
2022-08-21T22:05:31.379Z,68.90
2022-08-21T22:08:01.863Z,68.80
2022-08-21T22:13:45.757Z,69.30
2022-08-21T22:16:13.004Z,69.60
2022-08-21T22:18:45.123Z,69.60
2022-08-21T22:21:17.174Z,70.00
2022-08-21T22:23:47.049Z,70.00
2022-08-21T22:26:16.599Z,70.10
2022-08-21T22:28:45.307Z,70.40
2022-08-21T22:31:26.240Z,70.60
2022-08-21T22:34:17.654Z,70.80
2022-08-21T22:36:46.970Z,71.40
2022-08-21T22:39:26.541Z,71.40
2022-08-21T22:41:53.215Z,71.40
2022-08-21T22:44:22.440Z,71.50
2022-08-21T22:49:47.040Z,72.00
2022-08-21T22:52:21.587Z,72.30
2022-08-21T22:54:51.524Z,72.60
2022-08-21T22:57:30.476Z,72.80
2022-08-21T23:00:01.730Z,73.10
2022-08-21T23:02:42.024Z,73.60
2022-08-21T23:05:20.663Z,73.80
2022-08-21T23:07:49.899Z,74.10
2022-08-21T23:10:19.854Z,74.60
2022-08-21T23:12:50.826Z,74.60
2022-08-21T23:15:21.322Z,74.50
2022-08-21T23:17:52.197Z,74.70
2022-08-21T23:20:37.435Z,75.00
2022-08-21T23:23:04.329Z,75.20
2022-08-21T23:25:34.118Z,75.50
2022-08-21T23:28:16.145Z,75.90
2022-08-21T23:31:22.727Z,75.80
2022-08-21T23:34:07.290Z,75.60
2022-08-21T23:36:57.907Z,76.00
2022-08-21T23:39:53.960Z,75.90
2022-08-21T23:42:43.910Z,76.00
2022-08-21T23:45:32.880Z,76.20
2022-08-21T23:48:03.425Z,76.60
2022-08-21T23:50:44.826Z,77.00
2022-08-21T23:53:17.606Z,76.90
2022-08-21T23:55:55.110Z,77.20
2022-08-21T23:58:29.438Z,77.30
